Time;durP1;ratioP1;P1;durP2;ratioP2;P2;SDS_P1;SDS_P2;PMS_P1;PMS_P2;Temp;Humidity;BMP_temperature;BMP_pressure;BME280_temperature;BME280_humidity;BME280_pressure;Samples;Min_cycle;Max_cycle;Signal;HPM_P1;HPM_P2
2021/05/29 00:01:59;;;;;;;18.52;7.70;;;9.70;99.90;;;;;;4968300;28;20489;-73
2021/05/29 00:04:24;;;;;;;20.42;7.68;;;9.70;99.90;;;;;;4969134;28;20058;-72
2021/05/29 00:06:50;;;;;;;23.38;7.93;;;9.70;99.90;;;;;;4967707;28;20455;-72
2021/05/29 00:09:16;;;;;;;15.45;6.55;;;9.70;99.90;;;;;;4968793;28;20034;-72
2021/05/29 00:11:42;;;;;;;15.55;7.07;;;9.80;99.90;;;;;;4969069;28;20278;-73
2021/05/29 00:14:07;;;;;;;21.77;7.57;;;9.80;99.90;;;;;;4967968;28;20030;-72
2021/05/29 00:16:33;;;;;;;20.90;7.65;;;9.80;99.90;;;;;;4966736;28;20360;-73
2021/05/29 00:18:59;;;;;;;20.00;6.72;;;9.80;99.90;;;;;;4969386;28;20386;-73
2021/05/29 00:21:25;;;;;;;15.30;6.35;;;9.80;99.90;;;;;;4967652;28;20073;-73
2021/05/29 00:23:51;;;;;;;12.88;6.78;;;9.80;99.90;;;;;;4968312;28;20035;-73
2021/05/29 00:26:17;;;;;;;16.10;6.68;;;9.80;99.90;;;;;;4968489;28;20486;-73
2021/05/29 00:28:42;;;;;;;24.80;7.57;;;9.80;99.90;;;;;;4965600;28;20035;-73
2021/05/29 00:31:08;;;;;;;19.92;7.40;;;9.90;99.90;;;;;;4969209;28;20117;-73
2021/05/29 00:33:34;;;;;;;19.77;7.72;;;9.80;99.90;;;;;;4967295;28;20026;-73
2021/05/29 00:36:00;;;;;;;16.05;8.13;;;9.80;99.90;;;;;;4968647;28;20556;-73
2021/05/29 00:38:26;;;;;;;18.27;8.32;;;9.90;99.90;;;;;;4967962;28;20041;-74
2021/05/29 00:40:52;;;;;;;21.35;8.57;;;9.80;99.90;;;;;;4968514;28;20035;-73
2021/05/29 00:43:18;;;;;;;19.90;7.65;;;9.70;99.90;;;;;;4966868;28;20050;-73
2021/05/29 00:45:43;;;;;;;15.88;7.63;;;9.70;99.90;;;;;;4968431;28;20478;-73
2021/05/29 00:48:09;;;;;;;21.58;8.20;;;9.70;99.90;;;;;;4967577;28;20042;-73
2021/05/29 00:50:47;;;;;;;22.42;9.65;;;9.70;99.90;;;;;;4968494;28;20038;-73
2021/05/29 00:53:14;;;;;;;17.65;8.65;;;9.70;99.90;;;;;;4967947;28;20046;-73
2021/05/29 00:55:39;;;;;;;17.05;6.93;;;9.60;99.90;;;;;;4967913;28;20035;-73
2021/05/29 00:58:05;;;;;;;16.42;7.32;;;9.60;99.90;;;;;;4967982;28;20579;-73
2021/05/29 01:00:31;;;;;;;13.98;6.80;;;9.60;99.90;;;;;;4967231;28;20022;-73
2021/05/29 01:02:57;;;;;;;13.90;6.30;;;9.60;99.90;;;;;;4968275;28;20037;-73
2021/05/29 01:05:23;;;;;;;20.55;6.40;;;9.60;99.90;;;;;;4967781;28;20081;-73
2021/05/29 01:07:50;;;;;;;13.10;6.10;;;9.60;99.90;;;;;;4965707;28;20035;-72
2021/05/29 01:10:17;;;;;;;16.48;6.80;;;9.70;99.90;;;;;;4967263;28;20026;-73
2021/05/29 01:12:43;;;;;;;12.00;5.68;;;9.60;99.90;;;;;;4968123;28;20086;-73
2021/05/29 01:15:09;;;;;;;14.60;6.03;;;9.60;99.90;;;;;;4966431;28;20483;-73
2021/05/29 01:17:35;;;;;;;15.35;5.82;;;9.60;99.90;;;;;;4965994;28;20037;-73
2021/05/29 01:20:02;;;;;;;16.30;5.72;;;9.60;99.90;;;;;;4967132;28;20486;-73
2021/05/29 01:22:39;;;;;;;14.52;5.38;;;9.60;99.90;;;;;;4967093;28;20038;-73
2021/05/29 01:25:30;;;;;;;17.13;5.75;;;9.50;99.90;;;;;;4966659;28;20046;-73
2021/05/29 01:28:00;;;;;;;20.67;6.88;;;9.50;99.90;;;;;;4967816;28;20038;-73
2021/05/29 01:30:27;;;;;;;22.08;8.57;;;9.50;99.90;;;;;;4967962;28;20054;-73
2021/05/29 01:32:54;;;;;;;18.63;8.57;;;9.50;99.90;;;;;;4966881;28;20114;-73
2021/05/29 01:35:21;;;;;;;21.20;8.23;;;9.50;99.90;;;;;;4967254;28;20541;-72
2021/05/29 01:37:48;;;;;;;21.65;7.38;;;9.50;99.90;;;;;;4966753;28;20522;-72
2021/05/29 01:40:14;;;;;;;15.05;7.82;;;9.50;99.90;;;;;;4967325;28;20487;-73
2021/05/29 01:42:42;;;;;;;21.63;8.23;;;9.50;99.90;;;;;;4967775;28;20039;-73
2021/05/29 01:45:09;;;;;;;24.60;8.82;;;9.50;99.90;;;;;;4967691;28;20031;-73
2021/05/29 01:47:42;;;;;;;14.73;7.22;;;9.50;99.90;;;;;;4965161;28;20034;-73
2021/05/29 01:50:11;;;;;;;22.63;9.13;;;9.50;99.90;;;;;;4967282;28;20418;-73
2021/05/29 01:53:04;;;;;;;18.65;8.52;;;9.50;99.90;;;;;;4966472;28;20552;-73
2021/05/29 01:55:32;;;;;;;22.90;8.18;;;9.60;99.90;;;;;;4966716;28;20057;-73
2021/05/29 01:57:59;;;;;;;16.17;7.75;;;9.60;99.90;;;;;;4967372;28;20155;-73
2021/05/29 02:00:27;;;;;;;19.80;7.72;;;9.60;99.90;;;;;;4964166;28;20081;-73
2021/05/29 02:02:55;;;;;;;17.10;6.88;;;9.60;99.90;;;;;;4966180;28;20042;-73
2021/05/29 02:05:23;;;;;;;21.00;8.00;;;9.60;99.90;;;;;;4967441;28;20407;-73
2021/05/29 02:07:50;;;;;;;22.50;7.53;;;9.60;99.90;;;;;;4968265;28;20032;-73
2021/05/29 02:10:21;;;;;;;29.20;9.00;;;9.60;99.90;;;;;;4968097;28;20101;-72
2021/05/29 02:12:49;;;;;;;18.27;7.68;;;9.70;99.90;;;;;;4967098;28;20038;-72
2021/05/29 02:15:18;;;;;;;17.25;7.43;;;9.60;99.90;;;;;;4966608;28;20203;-73
2021/05/29 02:17:49;;;;;;;16.85;6.93;;;9.60;99.90;;;;;;4965977;28;20406;-73
2021/05/29 02:20:17;;;;;;;20.10;6.93;;;9.60;99.90;;;;;;4967647;28;20023;-73
2021/05/29 02:22:43;;;;;;;13.95;7.55;;;9.60;99.90;;;;;;4966583;28;20106;-73
2021/05/29 02:25:09;;;;;;;20.23;6.28;;;9.60;99.90;;;;;;4966779;28;20062;-73
2021/05/29 02:27:35;;;;;;;21.50;7.88;;;9.60;99.90;;;;;;4966271;28;20028;-73
2021/05/29 02:30:06;;;;;;;24.45;7.57;;;9.50;99.90;;;;;;4967494;28;20092;-73
2021/05/29 02:32:32;;;;;;;23.75;7.68;;;9.50;99.90;;;;;;4970917;28;20495;-73
2021/05/29 02:34:57;;;;;;;21.02;7.68;;;9.50;99.90;;;;;;4969716;28;20034;-73
2021/05/29 02:37:23;;;;;;;19.60;8.63;;;9.50;99.90;;;;;;4970729;28;20026;-73
2021/05/29 02:39:49;;;;;;;22.95;8.60;;;9.60;99.90;;;;;;4970220;28;20081;-73
2021/05/29 02:42:15;;;;;;;16.88;8.88;;;9.60;99.90;;;;;;4969589;28;20031;-73
2021/05/29 02:44:41;;;;;;;21.27;7.82;;;9.60;99.90;;;;;;4970515;28;20066;-73
2021/05/29 02:47:06;;;;;;;22.17;7.90;;;9.60;99.90;;;;;;4970743;28;20027;-73
2021/05/29 02:49:32;;;;;;;23.13;8.52;;;9.60;99.90;;;;;;4969242;28;20042;-73
2021/05/29 02:51:58;;;;;;;24.83;8.98;;;9.60;99.90;;;;;;4968963;28;20052;-73
2021/05/29 02:54:24;;;;;;;27.23;9.15;;;9.60;99.90;;;;;;4969075;28;20363;-73
2021/05/29 02:56:50;;;;;;;25.98;9.73;;;9.60;99.90;;;;;;4970363;28;20042;-73
2021/05/29 02:59:16;;;;;;;29.35;9.30;;;9.60;99.90;;;;;;4967789;28;20086;-73
2021/05/29 03:01:42;;;;;;;25.17;8.60;;;9.70;99.90;;;;;;4970288;28;20035;-73
2021/05/29 03:04:08;;;;;;;28.35;8.65;;;9.70;99.90;;;;;;4968344;28;20625;-73
2021/05/29 03:06:34;;;;;;;18.05;7.90;;;9.60;99.90;;;;;;4969436;28;20043;-73
2021/05/29 03:09:01;;;;;;;21.08;8.55;;;9.60;99.90;;;;;;4968925;28;20027;-73
2021/05/29 03:11:33;;;;;;;23.80;7.63;;;9.60;99.90;;;;;;4969881;28;20030;-73
2021/05/29 03:13:59;;;;;;;20.10;7.00;;;9.60;99.90;;;;;;4969688;28;20367;-73
2021/05/29 03:16:24;;;;;;;19.45;6.88;;;9.60;99.90;;;;;;4969983;28;20027;-73
2021/05/29 03:18:50;;;;;;;23.77;8.38;;;9.60;99.90;;;;;;4969548;28;20179;-73
2021/05/29 03:21:16;;;;;;;23.42;8.13;;;9.60;99.90;;;;;;4970517;28;20037;-73
2021/05/29 03:23:42;;;;;;;21.90;8.60;;;9.70;99.90;;;;;;4968824;28;20105;-73
2021/05/29 03:26:07;;;;;;;23.25;8.23;;;9.60;99.90;;;;;;4969851;28;20860;-73
2021/05/29 03:28:33;;;;;;;26.27;8.05;;;9.60;99.90;;;;;;4967780;28;20026;-73
2021/05/29 03:30:59;;;;;;;17.55;7.00;;;9.60;99.90;;;;;;4970038;28;20040;-73
2021/05/29 03:33:25;;;;;;;19.02;7.25;;;9.60;99.90;;;;;;4970382;28;20541;-73
2021/05/29 03:35:50;;;;;;;24.67;7.80;;;9.60;99.90;;;;;;5000464;28;20034;-73
2021/05/29 03:38:18;;;;;;;20.88;7.60;;;9.60;99.90;;;;;;4969128;28;20035;-73
2021/05/29 03:40:45;;;;;;;18.52;6.50;;;9.70;99.90;;;;;;4968810;28;20018;-73
2021/05/29 03:43:10;;;;;;;27.20;9.38;;;9.70;99.90;;;;;;4966986;28;20034;-73
2021/05/29 03:45:36;;;;;;;18.70;8.00;;;9.70;99.90;;;;;;4969278;28;20497;-73
2021/05/29 03:48:02;;;;;;;20.40;7.40;;;9.70;99.90;;;;;;4966959;28;20022;-73
2021/05/29 03:50:28;;;;;;;21.23;9.00;;;9.70;99.90;;;;;;4969098;28;20034;-73
2021/05/29 03:52:54;;;;;;;25.30;8.65;;;9.70;99.90;;;;;;4969195;28;20061;-73
2021/05/29 03:55:21;;;;;;;26.45;8.23;;;9.80;99.90;;;;;;4969115;28;20045;-73
2021/05/29 03:57:48;;;;;;;29.27;9.05;;;9.80;99.90;;;;;;4968083;28;20030;-73
2021/05/29 04:00:17;;;;;;;21.73;9.00;;;9.80;99.90;;;;;;4969234;28;20069;-73
2021/05/29 04:02:44;;;;;;;21.95;8.13;;;9.80;99.90;;;;;;4969241;28;20456;-73
2021/05/29 04:05:11;;;;;;;24.77;7.95;;;9.80;99.90;;;;;;4967559;28;20356;-73
2021/05/29 04:07:39;;;;;;;24.02;8.80;;;9.80;99.90;;;;;;4968880;28;20027;-73
2021/05/29 04:10:09;;;;;;;22.25;8.32;;;9.90;99.90;;;;;;4967836;28;20039;-73
2021/05/29 04:12:35;;;;;;;24.13;7.40;;;9.90;99.90;;;;;;4968387;28;20042;-73
2021/05/29 04:15:01;;;;;;;24.27;7.50;;;9.90;99.90;;;;;;4968891;28;20077;-73
2021/05/29 04:17:27;;;;;;;28.77;9.75;;;9.90;99.90;;;;;;4968679;28;20026;-73
2021/05/29 04:19:53;;;;;;;24.27;8.30;;;9.90;99.90;;;;;;4968475;28;20058;-73
2021/05/29 04:22:19;;;;;;;18.75;8.38;;;10.00;99.90;;;;;;4968761;28;20126;-73
2021/05/29 04:24:45;;;;;;;22.17;8.10;;;10.00;99.90;;;;;;4968310;28;20046;-73
2021/05/29 04:27:11;;;;;;;29.02;8.68;;;10.00;99.90;;;;;;4968786;28;20030;-73
2021/05/29 04:29:37;;;;;;;30.08;9.18;;;10.00;99.90;;;;;;4967012;28;20034;-73
2021/05/29 04:32:04;;;;;;;22.50;8.65;;;10.00;99.90;;;;;;4967439;28;20101;-73
2021/05/29 04:34:29;;;;;;;22.70;6.43;;;10.00;99.90;;;;;;4968114;28;20448;-73
2021/05/29 04:36:55;;;;;;;16.95;7.05;;;10.10;99.90;;;;;;4966230;28;20040;-73
2021/05/29 04:39:21;;;;;;;23.67;8.98;;;10.20;99.90;;;;;;4967161;28;20350;-73
2021/05/29 04:41:47;;;;;;;24.85;8.82;;;10.20;99.90;;;;;;4968710;28;20100;-72
2021/05/29 04:44:13;;;;;;;31.80;9.50;;;10.20;99.90;;;;;;4967660;28;20034;-73
2021/05/29 04:46:39;;;;;;;31.20;8.70;;;10.20;99.90;;;;;;4969074;28;20391;-73
2021/05/29 04:49:07;;;;;;;25.42;8.52;;;10.20;99.90;;;;;;4967651;28;20031;-73
2021/05/29 04:51:32;;;;;;;28.85;8.95;;;10.30;99.90;;;;;;4966758;28;20046;-73
2021/05/29 04:53:58;;;;;;;22.35;8.48;;;10.20;99.90;;;;;;4967905;28;20069;-73
2021/05/29 04:56:24;;;;;;;20.00;8.45;;;10.30;99.90;;;;;;4967184;28;20045;-73
2021/05/29 04:58:50;;;;;;;24.33;8.05;;;10.30;99.90;;;;;;4968432;28;20034;-73
2021/05/29 05:01:16;;;;;;;22.45;7.68;;;10.30;99.90;;;;;;4967837;28;20395;-73
2021/05/29 05:03:41;;;;;;;29.38;8.02;;;10.30;99.90;;;;;;4968003;28;20026;-73
2021/05/29 05:06:08;;;;;;;29.63;8.88;;;10.40;99.90;;;;;;4967264;28;20042;-73
2021/05/29 05:08:33;;;;;;;26.20;7.63;;;10.50;99.90;;;;;;4967663;28;20035;-73
2021/05/29 05:10:59;;;;;;;27.90;8.55;;;10.50;99.90;;;;;;4967026;28;20485;-73
2021/05/29 05:13:26;;;;;;;21.73;7.75;;;10.50;99.90;;;;;;4966915;28;20482;-73
2021/05/29 05:15:52;;;;;;;21.45;7.65;;;10.50;99.90;;;;;;4965852;28;20030;-73
2021/05/29 05:18:20;;;;;;;28.27;8.60;;;10.60;99.90;;;;;;4967581;28;20520;-73
2021/05/29 05:20:46;;;;;;;21.35;8.57;;;10.60;99.90;;;;;;4967928;28;20038;-73
2021/05/29 05:23:14;;;;;;;30.90;8.35;;;10.70;99.90;;;;;;4967664;28;20034;-73
2021/05/29 05:25:40;;;;;;;28.33;8.25;;;10.60;99.90;;;;;;4967565;28;20560;-73
2021/05/29 05:28:06;;;;;;;29.73;8.70;;;10.60;99.90;;;;;;4967689;28;20069;-73
2021/05/29 05:30:32;;;;;;;35.22;9.00;;;10.70;99.90;;;;;;4966453;28;20625;-73
2021/05/29 05:33:04;;;;;;;26.23;8.65;;;10.70;99.90;;;;;;4964911;28;20128;-73
2021/05/29 05:35:31;;;;;;;24.42;8.43;;;10.80;99.90;;;;;;4967617;28;20089;-73
2021/05/29 05:37:57;;;;;;;21.10;8.27;;;10.80;99.90;;;;;;4966936;28;20449;-73
2021/05/29 05:40:23;;;;;;;27.77;8.80;;;10.80;99.90;;;;;;4967341;28;20040;-73
2021/05/29 05:42:49;;;;;;;24.92;8.77;;;10.90;99.90;;;;;;4967241;28;20042;-73
2021/05/29 05:45:16;;;;;;;30.10;7.93;;;10.90;99.90;;;;;;4967512;28;20056;-73
2021/05/29 05:47:42;;;;;;;23.65;8.30;;;10.90;99.90;;;;;;4966026;28;20029;-73
2021/05/29 05:50:09;;;;;;;28.67;8.38;;;10.90;99.90;;;;;;4965333;28;20512;-73
2021/05/29 05:52:38;;;;;;;21.33;8.43;;;11.00;99.90;;;;;;4997236;28;20031;-73
2021/05/29 05:55:06;;;;;;;33.80;9.07;;;11.10;99.90;;;;;;4967394;28;20037;-73
2021/05/29 05:57:33;;;;;;;28.95;9.07;;;11.10;99.90;;;;;;4966434;28;20505;-73
2021/05/29 06:00:00;;;;;;;22.70;8.50;;;11.10;99.90;;;;;;4967338;28;20481;-73
2021/05/29 06:02:26;;;;;;;26.25;7.63;;;11.20;99.90;;;;;;4967107;28;20041;-73
2021/05/29 06:04:53;;;;;;;23.55;8.77;;;11.20;99.90;;;;;;4968149;28;20026;-73
2021/05/29 06:07:19;;;;;;;27.73;8.23;;;11.20;99.90;;;;;;4968594;28;20045;-73
2021/05/29 06:09:46;;;;;;;32.08;9.07;;;11.20;99.90;;;;;;4970953;28;20026;-73
2021/05/29 06:12:12;;;;;;;28.63;7.93;;;11.30;99.90;;;;;;4971010;28;20046;-73
2021/05/29 06:20:12;;;;;;;27.60;8.40;;;11.50;99.90;;;;;;4970180;28;20034;-73
2021/05/29 06:22:39;;;;;;;25.65;8.75;;;11.60;99.90;;;;;;4969315;28;20034;-73
2021/05/29 06:25:13;;;;;;;26.88;7.90;;;11.70;99.90;;;;;;4971212;28;20198;-72
2021/05/29 06:27:39;;;;;;;30.05;8.48;;;11.80;99.90;;;;;;4970949;28;20035;-73
2021/05/29 06:30:06;;;;;;;35.30;8.80;;;11.80;99.90;;;;;;4968184;28;20030;-73
2021/05/29 06:32:33;;;;;;;28.38;8.52;;;11.90;99.90;;;;;;4969611;28;20493;-74
2021/05/29 06:34:59;;;;;;;23.02;7.60;;;12.00;99.90;;;;;;4969289;28;20031;-73
2021/05/29 06:37:25;;;;;;;20.90;7.22;;;12.10;99.90;;;;;;4970598;28;20107;-73
2021/05/29 06:39:52;;;;;;;24.17;7.50;;;12.20;99.90;;;;;;4969945;28;20391;-73
2021/05/29 06:42:18;;;;;;;22.60;8.00;;;12.30;99.90;;;;;;4969700;28;20042;-74
2021/05/29 06:44:44;;;;;;;26.98;7.78;;;12.30;99.90;;;;;;4970967;28;20030;-73
2021/05/29 06:47:09;;;;;;;27.83;7.72;;;12.30;99.90;;;;;;4970021;28;20943;-74
2021/05/29 06:49:36;;;;;;;30.00;8.18;;;12.40;99.90;;;;;;4968225;28;20049;-73
2021/05/29 06:52:14;;;;;;;23.52;8.35;;;12.40;99.90;;;;;;4969074;28;20049;-74
2021/05/29 06:59:51;;;;;;;29.55;8.15;;;12.80;99.90;;;;;;4970394;28;20125;-74
2021/05/29 07:02:17;;;;;;;23.05;8.40;;;12.80;99.90;;;;;;4968347;28;20526;-74
2021/05/29 07:04:43;;;;;;;24.65;6.53;;;12.90;99.90;;;;;;4968705;28;20161;-74
2021/05/29 07:07:09;;;;;;;26.00;7.20;;;12.90;99.90;;;;;;4969254;28;20046;-74
2021/05/29 07:09:35;;;;;;;24.75;7.43;;;13.00;99.90;;;;;;4970000;28;20186;-74
2021/05/29 07:12:01;;;;;;;28.67;7.57;;;13.00;99.90;;;;;;4968849;28;20034;-74
2021/05/29 07:14:26;;;;;;;27.92;6.95;;;13.10;99.90;;;;;;4969837;28;20033;-73
2021/05/29 07:16:54;;;;;;;31.88;7.88;;;13.20;99.90;;;;;;4968606;28;20060;-74
2021/05/29 07:19:20;;;;;;;22.30;6.78;;;13.30;99.90;;;;;;4970790;28;20127;-73
2021/05/29 07:21:48;;;;;;;19.92;7.07;;;13.30;99.90;;;;;;4969339;28;20034;-73
2021/05/29 07:24:14;;;;;;;28.30;7.18;;;13.40;99.90;;;;;;4970016;28;20110;-74
2021/05/29 07:26:40;;;;;;;39.13;8.27;;;13.40;99.90;;;;;;4968596;28;20050;-74
2021/05/29 07:29:06;;;;;;;21.83;6.50;;;13.40;99.90;;;;;;4969534;28;20030;-73
2021/05/29 07:31:32;;;;;;;21.40;6.05;;;13.50;99.90;;;;;;4968993;28;20027;-73
2021/05/29 07:33:58;;;;;;;26.42;6.63;;;13.70;99.90;;;;;;4969639;28;20030;-73
2021/05/29 07:36:24;;;;;;;25.27;7.72;;;13.70;99.90;;;;;;4967703;28;20105;-73
2021/05/29 07:38:51;;;;;;;24.42;7.70;;;13.90;99.90;;;;;;4969251;28;20027;-74
2021/05/29 07:41:17;;;;;;;24.83;8.93;;;13.90;99.90;;;;;;4968842;28;20033;-73
2021/05/29 07:43:43;;;;;;;25.95;8.15;;;13.90;99.90;;;;;;4969172;28;20027;-73
2021/05/29 07:46:10;;;;;;;24.17;7.72;;;13.70;99.90;;;;;;4969218;28;20039;-74
2021/05/29 07:48:37;;;;;;;26.17;8.18;;;13.70;99.90;;;;;;4967802;28;20030;-73
2021/05/29 07:51:04;;;;;;;27.38;7.25;;;13.90;99.90;;;;;;4965972;28;20289;-73
2021/05/29 07:53:40;;;;;;;21.67;7.45;;;14.10;99.90;;;;;;4968013;28;20455;-74
2021/05/29 07:56:12;;;;;;;24.20;6.70;;;14.20;99.90;;;;;;4969164;28;20089;-74
2021/05/29 07:58:42;;;;;;;28.85;8.88;;;14.40;99.90;;;;;;4968851;28;20042;-74
2021/05/29 08:01:09;;;;;;;26.58;7.38;;;14.30;99.90;;;;;;4970099;28;20034;-74
2021/05/29 08:03:35;;;;;;;31.98;9.48;;;14.30;99.90;;;;;;4967667;28;20392;-74
2021/05/29 08:06:07;;;;;;;21.38;7.03;;;14.90;99.90;;;;;;4968289;28;20460;-74
2021/05/29 08:08:33;;;;;;;20.42;6.18;;;15.50;99.90;;;;;;4969313;28;20030;-71
2021/05/29 08:11:00;;;;;;;26.08;6.47;;;16.10;99.90;;;;;;4968241;28;20498;-74
2021/05/29 08:13:27;;;;;;;23.80;7.25;;;16.30;99.90;;;;;;4968293;28;20537;-74
2021/05/29 08:15:53;;;;;;;30.30;7.05;;;16.30;99.90;;;;;;4968528;28;20031;-74
2021/05/29 08:18:20;;;;;;;27.02;7.53;;;16.20;99.90;;;;;;4968050;28;20050;-73
2021/05/29 08:20:50;;;;;;;26.75;7.60;;;16.10;99.90;;;;;;4966568;28;20030;-73
2021/05/29 08:23:17;;;;;;;30.10;7.95;;;16.20;99.90;;;;;;4969161;28;20041;-74
2021/05/29 08:25:43;;;;;;;28.42;7.78;;;16.20;99.90;;;;;;4967978;28;20082;-73
2021/05/29 08:28:09;;;;;;;27.98;6.90;;;16.50;99.90;;;;;;4966512;28;20138;-73
2021/05/29 08:30:36;;;;;;;22.45;7.03;;;16.60;99.90;;;;;;4967113;28;20220;-74
2021/05/29 08:33:02;;;;;;;26.23;6.78;;;16.60;99.90;;;;;;4968318;28;20046;-74
2021/05/29 08:35:28;;;;;;;25.80;7.03;;;16.80;99.90;;;;;;4967853;28;20031;-73
2021/05/29 08:37:54;;;;;;;20.90;7.43;;;17.20;99.90;;;;;;4967453;28;20563;-74
2021/05/29 08:40:21;;;;;;;20.73;6.95;;;16.80;99.90;;;;;;4968087;28;20030;-74
2021/05/29 08:42:47;;;;;;;22.63;7.57;;;16.70;99.90;;;;;;4969096;28;20069;-74
2021/05/29 08:45:16;;;;;;;30.10;8.15;;;16.80;99.90;;;;;;4968109;28;20022;-71
2021/05/29 08:47:44;;;;;;;26.33;7.00;;;17.40;99.90;;;;;;4965983;28;20053;-71
2021/05/29 08:50:10;;;;;;;30.90;7.40;;;17.90;99.90;;;;;;4968148;28;20040;-71
2021/05/29 08:52:37;;;;;;;24.48;7.03;;;18.50;99.90;;;;;;4967569;28;20398;-72
2021/05/29 08:55:09;;;;;;;21.35;5.80;;;19.10;99.90;;;;;;4968110;28;20495;-74
2021/05/29 08:57:36;;;;;;;29.40;6.22;;;19.50;99.90;;;;;;4967023;28;20042;-74
2021/05/29 09:00:06;;;;;;;22.92;6.93;;;18.70;99.90;;;;;;4968180;28;20037;-74
2021/05/29 09:02:32;;;;;;;19.33;6.40;;;18.50;99.90;;;;;;4968039;28;20281;-74
2021/05/29 09:05:06;;;;;;;25.27;6.55;;;18.50;99.90;;;;;;4967732;28;20081;-74
2021/05/29 09:07:32;;;;;;;29.63;7.18;;;18.90;99.90;;;;;;4965291;28;20032;-74
2021/05/29 09:10:17;;;;;;;21.95;6.63;;;19.10;99.90;;;;;;4967659;28;20061;-74
2021/05/29 09:13:00;;;;;;;23.90;6.75;;;19.30;99.90;;;;;;4968201;28;20045;-74
2021/05/29 09:15:57;;;;;;;24.52;6.85;;;19.80;99.90;;;;;;4966915;28;20548;-74
2021/05/29 09:18:33;;;;;;;27.38;6.45;;;20.20;99.90;;;;;;4966675;28;20034;-74
2021/05/29 09:21:31;;;;;;;28.75;7.18;;;19.90;99.90;;;;;;4966786;28;20081;-74
2021/05/29 09:24:02;;;;;;;19.23;5.90;;;20.20;99.90;;;;;;4967403;28;20038;-74
2021/05/29 09:26:46;;;;;;;25.83;7.40;;;20.30;99.90;;;;;;4968159;28;20128;-74
2021/05/29 09:29:28;;;;;;;21.08;6.95;;;20.40;99.90;;;;;;4967782;28;20053;-75
2021/05/29 09:32:08;;;;;;;25.40;6.60;;;20.50;99.90;;;;;;4967274;28;20554;-74
2021/05/29 09:34:42;;;;;;;;;;;20.60;99.90;;;;;;4968420;28;20039;-74
2021/05/29 09:37:14;;;;;;;23.02;6.47;;;20.70;99.90;;;;;;4966501;28;20310;-75
2021/05/29 09:39:43;;;;;;;22.98;6.82;;;21.20;99.90;;;;;;4969309;28;20403;-74
2021/05/29 09:42:10;;;;;;;20.33;6.78;;;20.70;99.90;;;;;;4971243;28;20053;-74
2021/05/29 09:44:37;;;;;;;20.67;6.82;;;20.60;99.90;;;;;;4970783;28;20117;-75
2021/05/29 09:47:09;;;;;;;23.13;5.65;;;20.50;99.90;;;;;;4971695;28;20125;-74
2021/05/29 09:49:51;;;;;;;21.25;5.88;;;20.60;99.90;;;;;;4971412;28;20030;-74
2021/05/29 09:52:23;;;;;;;16.15;5.80;;;20.70;99.90;;;;;;4969233;28;20042;-75
2021/05/29 09:55:00;;;;;;;21.08;5.93;;;20.60;99.90;;;;;;4969155;28;20117;-75
2021/05/29 09:57:26;;;;;;;25.40;6.57;;;20.80;99.90;;;;;;4971570;28;20031;-74
2021/05/29 10:00:05;;;;;;;31.55;6.43;;;20.80;99.90;;;;;;4971213;28;20432;-75
2021/05/29 10:02:32;;;;;;;21.15;6.10;;;20.80;99.90;;;;;;4971963;28;20465;-75
2021/05/29 10:04:58;;;;;;;18.38;6.00;;;21.10;99.90;;;;;;4971176;28;20045;-74
2021/05/29 10:07:37;;;;;;;22.13;6.38;;;21.40;99.90;;;;;;4971413;28;20046;-75
2021/05/29 10:10:04;;;;;;;21.20;6.78;;;21.10;99.90;;;;;;4971784;28;20034;-75
2021/05/29 10:12:30;;;;;;;21.17;5.80;;;20.90;99.90;;;;;;4970719;28;20588;-74
2021/05/29 10:14:55;;;;;;;28.20;6.53;;;21.10;99.90;;;;;;4970308;28;20134;-75
2021/05/29 10:17:23;;;;;;;25.35;5.88;;;21.30;99.90;;;;;;4971451;28;20470;-75
2021/05/29 10:19:49;;;;;;;21.85;6.32;;;21.50;99.90;;;;;;4969861;28;20023;-76
2021/05/29 10:22:17;;;;;;;22.83;7.47;;;21.60;99.90;;;;;;4971524;28;20037;-76
2021/05/29 10:24:44;;;;;;;27.02;7.57;;;21.80;99.90;;;;;;4969731;28;20042;-76
2021/05/29 10:27:23;;;;;;;24.50;6.25;;;22.00;99.90;;;;;;4971225;28;20030;-76
2021/05/29 10:29:57;;;;;;;21.88;6.70;;;21.90;99.90;;;;;;4970580;28;20034;-75
2021/05/29 10:32:22;;;;;;;24.67;6.43;;;22.00;99.90;;;;;;4969993;28;20129;-76
2021/05/29 10:34:57;;;;;;;19.05;6.60;;;22.20;99.90;;;;;;4971153;28;20481;-76
2021/05/29 10:37:39;;;;;;;19.75;5.97;;;22.30;99.90;;;;;;5000115;28;20668;-76
2021/05/29 10:40:27;;;;;;;20.83;5.93;;;22.10;99.90;;;;;;4969343;28;20080;-75
2021/05/29 10:43:19;;;;;;;24.60;7.72;;;22.10;99.90;;;;;;4970681;28;20614;-76
2021/05/29 10:45:50;;;;;;;25.80;6.07;;;22.20;99.90;;;;;;4970270;28;20038;-75
2021/05/29 10:48:20;;;;;;;23.92;6.40;;;22.50;99.90;;;;;;4969566;28;20027;-76
2021/05/29 10:53:37;;;;;;;24.38;6.03;;;22.60;99.90;;;;;;4969518;28;20570;-76
2021/05/29 10:56:18;;;;;;;21.53;6.27;;;22.50;99.90;;;;;;4968077;28;20066;-76
2021/05/29 10:59:02;;;;;;;21.55;6.07;;;22.40;99.90;;;;;;4970200;28;20030;-76
2021/05/29 11:01:39;;;;;;;22.08;6.18;;;22.20;99.90;;;;;;4969361;28;20607;-76
2021/05/29 11:04:23;;;;;;;24.65;6.72;;;22.20;99.90;;;;;;4968616;28;20032;-76
2021/05/29 11:06:52;;;;;;;22.88;5.80;;;21.90;99.90;;;;;;4968879;28;20109;-76
2021/05/29 11:09:30;;;;;;;20.50;5.57;;;21.70;99.90;;;;;;4969675;28;20034;-75
2021/05/29 11:12:00;;;;;;;22.00;6.65;;;21.90;99.90;;;;;;4969799;28;20400;-76
2021/05/29 11:14:30;;;;;;;21.85;5.78;;;21.80;99.90;;;;;;4969913;28;20632;-76
2021/05/29 11:16:57;;;;;;;19.25;6.35;;;21.90;99.90;;;;;;4970181;28;20077;-76
2021/05/29 11:19:30;;;;;;;18.60;6.57;;;21.90;99.90;;;;;;4969038;28;20391;-76
2021/05/29 11:22:06;;;;;;;22.13;7.57;;;21.80;99.90;;;;;;4969054;28;20039;-76
2021/05/29 11:24:34;;;;;;;22.27;6.75;;;21.70;99.90;;;;;;4968857;28;20530;-76
2021/05/29 11:27:06;;;;;;;24.58;6.20;;;21.80;99.90;;;;;;4969364;28;20039;-76
2021/05/29 11:29:53;;;;;;;25.25;6.68;;;21.80;99.90;;;;;;4969986;28;20030;-76
2021/05/29 11:32:46;;;;;;;25.52;7.40;;;21.80;99.90;;;;;;4969769;28;20192;-76
2021/05/29 11:35:32;;;;;;;29.98;7.22;;;21.90;99.90;;;;;;4969044;28;20323;-76
2021/05/29 11:38:28;;;;;;;23.15;6.63;;;22.00;99.90;;;;;;4967639;28;20537;-76
2021/05/29 11:41:11;;;;;;;20.13;6.55;;;21.70;99.90;;;;;;4968908;28;20049;-76
2021/05/29 11:43:43;;;;;;;17.48;6.15;;;21.50;99.90;;;;;;4967444;28;20462;-77
2021/05/29 11:46:16;;;;;;;20.60;6.20;;;21.70;99.90;;;;;;4969486;28;20112;-76
2021/05/29 11:48:45;;;;;;;24.33;7.20;;;22.00;99.90;;;;;;4969588;28;20031;-77
2021/05/29 11:51:13;;;;;;;23.88;6.47;;;22.00;99.90;;;;;;4967647;28;20037;-76
2021/05/29 11:53:40;;;;;;;21.80;6.95;;;21.80;99.90;;;;;;4967593;28;20149;-76
2021/05/29 11:56:07;;;;;;;24.80;6.57;;;21.80;99.90;;;;;;4969310;28;20018;-76
2021/05/29 11:58:59;;;;;;;18.92;7.18;;;21.80;99.90;;;;;;4968106;28;20039;-77
2021/05/29 12:01:32;;;;;;;20.40;6.88;;;21.60;99.90;;;;;;4970879;28;20554;-77
2021/05/29 12:04:03;;;;;;;19.15;6.25;;;21.60;99.90;;;;;;4966632;28;20101;-77
2021/05/29 12:06:37;;;;;;;22.42;6.65;;;21.30;99.90;;;;;;4968568;28;20026;-76
2021/05/29 12:09:07;;;;;;;25.58;6.97;;;21.40;99.90;;;;;;4968635;28;20030;-77
2021/05/29 12:11:34;;;;;;;16.80;5.45;;;21.60;99.90;;;;;;4969415;28;20088;-76
2021/05/29 12:14:03;;;;;;;17.58;5.70;;;21.90;99.90;;;;;;4967724;28;20654;-77
2021/05/29 12:16:40;;;;;;;17.73;5.50;;;21.90;99.90;;;;;;4968557;28;20040;-76
2021/05/29 12:19:07;;;;;;;18.20;5.45;;;21.60;99.90;;;;;;4967372;28;20038;-77
2021/05/29 12:22:09;;;;;;;20.15;6.28;;;21.60;99.90;;;;;;4966550;28;20553;-76
2021/05/29 12:24:47;;;;;;;19.73;6.32;;;21.50;99.90;;;;;;5052787;28;20645;-77
2021/05/29 12:27:21;;;;;;;19.30;6.13;;;21.40;99.90;;;;;;5052904;28;20083;-77
2021/05/29 12:29:49;;;;;;;24.02;6.57;;;21.30;99.90;;;;;;5053752;28;20097;-77
2021/05/29 12:32:39;;;;;;;20.05;5.55;;;21.10;99.90;;;;;;5052341;28;20362;-77
2021/05/29 12:35:10;;;;;;;33.20;7.82;;;21.00;99.90;;;;;;5054231;28;20068;-77
2021/05/29 12:37:37;;;;;;;26.88;7.65;;;21.00;99.90;;;;;;5051660;28;20339;-77
2021/05/29 12:40:13;;;;;;;19.45;5.18;;;20.90;99.90;;;;;;5051419;28;20060;-75
2021/05/29 12:42:49;;;;;;;15.52;5.72;;;20.70;99.90;;;;;;5052326;28;20040;-75
2021/05/29 12:45:27;;;;;;;18.08;5.78;;;20.50;99.90;;;;;;5051139;28;20451;-74
2021/05/29 12:47:54;;;;;;;24.83;6.13;;;20.40;99.90;;;;;;5052833;28;20025;-74
2021/05/29 12:50:24;;;;;;;21.73;6.25;;;20.10;99.90;;;;;;5053887;28;20498;-75
2021/05/29 12:52:50;;;;;;;17.27;6.05;;;19.80;99.90;;;;;;5052088;28;20033;-74
2021/05/29 12:55:27;;;;;;;22.80;6.95;;;19.80;99.90;;;;;;5053177;28;20035;-74
2021/05/29 12:57:53;;;;;;;22.63;6.80;;;19.60;99.90;;;;;;5052216;28;20036;-74
2021/05/29 13:00:29;;;;;;;24.35;7.70;;;19.50;99.90;;;;;;5051523;28;20423;-74
2021/05/29 13:11:30;;;;;;;20.25;7.28;;;19.50;99.90;;;;;;5052806;28;20110;-74
2021/05/29 13:14:00;;;;;;;22.77;6.95;;;19.40;99.90;;;;;;5052061;28;20398;-74